ELY198 MROC-LLBG
Flight info
| Callsign | ELY198 |
|---|---|
| Flight time | N/A |
| Altitude | 37000 |
| Route | NANJO3C COLOR UP798 SPP DCT COLBY/N0478F360 UM594 KEBET/N0405F230 M594 ALBBE/N0474F370 M594 GTK DCT NETTA A554 CERDA DCT MLLER/M081F370 M594 KOZIK/M081F390 M594 AMENO DCT 3455N DCT 3850N DCT 4240N/M081F410 DCT 4530N DCT 4620N DCT BUNAV UN536 TIVLU/N0462F410 DCT NOVAN DCT CNA DCT MAKOX DCT XUPAL DCT MTL DCT RETNO DCT PIGOS DCT DOKAR DCT SUNEV DCT INGAB DCT RUTOM DCT MIL DCT VANZA N134 BIRES Z89 PIKOG L609 ZUKKO |
| Aircraft | B772/H-SDE2E3FGHIJ4J5LM1OP2RVWXY/LB1D1 |
Departure
| Time | 2026-05-07 23:37 |
|---|---|
| Airport | Juan Santamaría International Airport (MROC) |
Arrival
| Time | N/A |
|---|---|
| Airport | Ben Gurion International Airport (LLBG) |
| Time | Latitude | Longitude | Altitude | Speed | Heading |
|---|---|---|---|---|---|
| 2026-05-07 23:31 | 9.99534 | -84.21099 | 3019 ft | 0 kts | 261° |
| 2026-05-07 23:32 | 9.99534 | -84.21101 | 3019 ft | 1 kts | 261° |
| 2026-05-07 23:33 | 9.99522 | -84.21155 | 3014 ft | 14 kts | 253° |
| 2026-05-07 23:33 | 9.99455 | -84.21201 | 3009 ft | 8 kts | 166° |
| 2026-05-07 23:33 | 9.99398 | -84.21187 | 3009 ft | 8 kts | 169° |
| 2026-05-07 23:33 | 9.99355 | -84.21226 | 3007 ft | 10 kts | 247° |
| 2026-05-07 23:34 | 9.99325 | -84.21300 | 3002 ft | 12 kts | 252° |
| 2026-05-07 23:34 | 9.99299 | -84.21390 | 2996 ft | 14 kts | 249° |
| 2026-05-07 23:34 | 9.99259 | -84.21493 | 2987 ft | 17 kts | 249° |
| 2026-05-07 23:34 | 9.99214 | -84.21610 | 2979 ft | 19 kts | 249° |
| 2026-05-07 23:35 | 9.99166 | -84.21733 | 2973 ft | 19 kts | 249° |
| 2026-05-07 23:35 | 9.99119 | -84.21865 | 2967 ft | 20 kts | 251° |
| 2026-05-07 23:35 | 9.99092 | -84.21983 | 2950 ft | 20 kts | 276° |
| 2026-05-07 23:35 | 9.99087 | -84.22120 | 2957 ft | 20 kts | 250° |
| 2026-05-07 23:36 | 9.98998 | -84.22199 | 2943 ft | 18 kts | 172° |
| 2026-05-07 23:36 | 9.98921 | -84.22141 | 2941 ft | 6 kts | 76° |
| 2026-05-07 23:36 | 9.98923 | -84.22134 | 2950 ft | 0 kts | 69° |
| 2026-05-07 23:36 | 9.98976 | -84.21991 | 2958 ft | 55 kts | 69° |
| 2026-05-07 23:37 | 9.99198 | -84.21405 | 2992 ft | 121 kts | 69° |
| 2026-05-07 23:37 | 9.99568 | -84.20417 | 3046 ft | 177 kts | 68° |
| 2026-05-07 23:37 | 10.00034 | -84.19205 | 3582 ft | 189 kts | 66° |
| 2026-05-07 23:37 | 10.00630 | -84.18001 | 4396 ft | 192 kts | 49° |
| 2026-05-07 23:38 | 10.01783 | -84.17304 | 4933 ft | 204 kts | 8° |
| 2026-05-07 23:38 | 10.03199 | -84.17571 | 5077 ft | 217 kts | 328° |
| 2026-05-07 23:38 | 10.04159 | -84.18757 | 5240 ft | 228 kts | 291° |
| 2026-05-07 23:38 | 10.04806 | -84.20254 | 5335 ft | 238 kts | 309° |
| 2026-05-07 23:39 | 10.05815 | -84.21624 | 5471 ft | 246 kts | 297° |
| 2026-05-07 23:39 | 10.06339 | -84.23322 | 5585 ft | 261 kts | 284° |
| 2026-05-07 23:39 | 10.06856 | -84.25145 | 5942 ft | 276 kts | 290° |
| 2026-05-07 23:39 | 10.07499 | -84.27014 | 6595 ft | 279 kts | 292° |
| 2026-05-07 23:40 | 10.08161 | -84.28818 | 7544 ft | 269 kts | 292° |
| 2026-05-07 23:40 | 10.08815 | -84.30600 | 8216 ft | 269 kts | 291° |
| 2026-05-07 23:40 | 10.09527 | -84.32358 | 8683 ft | 271 kts | 303° |
| 2026-05-07 23:40 | 10.10847 | -84.33680 | 9162 ft | 268 kts | 335° |
| 2026-05-07 23:41 | 10.12630 | -84.34124 | 9628 ft | 268 kts | 3° |
| 2026-05-07 23:41 | 10.14441 | -84.33706 | 9842 ft | 276 kts | 24° |
| 2026-05-07 23:41 | 10.16255 | -84.32911 | 10239 ft | 283 kts | 25° |
| 2026-05-07 23:41 | 10.18042 | -84.32122 | 10886 ft | 284 kts | 26° |
| 2026-05-07 23:42 | 10.19853 | -84.31313 | 11459 ft | 285 kts | 26° |
| 2026-05-07 23:42 | 10.21705 | -84.30489 | 12022 ft | 288 kts | 26° |
| 2026-05-07 23:42 | 10.23526 | -84.29679 | 12604 ft | 291 kts | 26° |
| 2026-05-07 23:42 | 10.25394 | -84.28855 | 13137 ft | 297 kts | 27° |
| 2026-05-07 23:43 | 10.27332 | -84.27955 | 13271 ft | 313 kts | 34° |
| 2026-05-07 23:43 | 10.28965 | -84.26463 | 13393 ft | 323 kts | 56° |
| 2026-05-07 23:43 | 10.30259 | -84.24528 | 13527 ft | 341 kts | 58° |
| 2026-05-07 23:43 | 10.31593 | -84.22538 | 14232 ft | 339 kts | 58° |
| 2026-05-07 23:44 | 10.32931 | -84.20561 | 14939 ft | 341 kts | 58° |
| 2026-05-07 23:44 | 10.34282 | -84.18568 | 15532 ft | 346 kts | 58° |
| 2026-05-07 23:44 | 10.35685 | -84.16499 | 15733 ft | 365 kts | 57° |
| 2026-05-07 23:44 | 10.37162 | -84.14347 | 16085 ft | 377 kts | 56° |
| 2026-05-07 23:45 | 10.38705 | -84.12151 | 16560 ft | 385 kts | 57° |
| 2026-05-07 23:45 | 10.40228 | -84.09898 | 17222 ft | 389 kts | 58° |
| 2026-05-07 23:45 | 10.41763 | -84.07621 | 17910 ft | 393 kts | 57° |
| 2026-05-07 23:45 | 10.43318 | -84.05318 | 18522 ft | 397 kts | 57° |
| 2026-05-07 23:46 | 10.44889 | -84.03001 | 19132 ft | 400 kts | 57° |
| 2026-05-07 23:46 | 10.46477 | -84.00668 | 19775 ft | 402 kts | 57° |
| 2026-05-07 23:46 | 10.48075 | -83.98321 | 20419 ft | 405 kts | 57° |
| 2026-05-07 23:46 | 10.49658 | -83.95997 | 21046 ft | 407 kts | 57° |
| 2026-05-07 23:47 | 10.51275 | -83.93623 | 21680 ft | 410 kts | 57° |
| 2026-05-07 23:47 | 10.52902 | -83.91234 | 22306 ft | 412 kts | 56° |
| 2026-05-07 23:47 | 10.54538 | -83.88832 | 22923 ft | 416 kts | 56° |
| 2026-05-07 23:47 | 10.56179 | -83.86422 | 23416 ft | 422 kts | 56° |
| 2026-05-07 23:48 | 10.57856 | -83.83959 | 23854 ft | 426 kts | 56° |
| 2026-05-07 23:48 | 10.59548 | -83.81474 | 24327 ft | 429 kts | 56° |
| 2026-05-07 23:48 | 10.61250 | -83.78974 | 24799 ft | 431 kts | 56° |
| 2026-05-07 23:48 | 10.62960 | -83.76460 | 25250 ft | 434 kts | 56° |
| 2026-05-07 23:49 | 10.64685 | -83.73924 | 25660 ft | 438 kts | 56° |
| 2026-05-07 23:49 | 10.66423 | -83.71369 | 26069 ft | 441 kts | 56° |
| 2026-05-07 23:49 | 10.68174 | -83.68793 | 26471 ft | 444 kts | 56° |
| 2026-05-07 23:49 | 10.69933 | -83.66204 | 26865 ft | 447 kts | 56° |
| 2026-05-07 23:50 | 10.71705 | -83.63597 | 27249 ft | 450 kts | 56° |
| 2026-05-07 23:50 | 10.73487 | -83.60972 | 27638 ft | 452 kts | 56° |
| 2026-05-07 23:50 | 10.75284 | -83.58345 | 27970 ft | 453 kts | 55° |
| 2026-05-07 23:50 | 10.77328 | -83.55893 | 28183 ft | 457 kts | 47° |
| 2026-05-07 23:51 | 10.79597 | -83.53612 | 28421 ft | 460 kts | 45° |
| 2026-05-07 23:51 | 10.81916 | -83.51371 | 28734 ft | 462 kts | 45° |
| 2026-05-07 23:51 | 10.84248 | -83.49122 | 29039 ft | 463 kts | 45° |
| 2026-05-07 23:51 | 10.86543 | -83.46881 | 29316 ft | 464 kts | 45° |
| 2026-05-07 23:52 | 10.88655 | -83.44792 | 29508 ft | 465 kts | 46° |
| 2026-05-07 23:52 | 10.90909 | -83.42539 | 29727 ft | 467 kts | 46° |
| 2026-05-07 23:52 | 10.93222 | -83.40209 | 29899 ft | 468 kts | 46° |
| 2026-05-07 23:52 | 10.95533 | -83.37869 | 30083 ft | 470 kts | 46° |
| 2026-05-07 23:53 | 10.97854 | -83.35516 | 30256 ft | 470 kts | 46° |
| 2026-05-07 23:53 | 11.00173 | -83.33167 | 30429 ft | 471 kts | 46° |
| 2026-05-07 23:53 | 11.02500 | -83.30808 | 30568 ft | 473 kts | 46° |
| 2026-05-07 23:53 | 11.04829 | -83.28448 | 30698 ft | 474 kts | 46° |
| 2026-05-07 23:54 | 11.07171 | -83.26075 | 30820 ft | 475 kts | 46° |
| 2026-05-07 23:54 | 11.09488 | -83.23727 | 30945 ft | 477 kts | 46° |
| 2026-05-07 23:54 | 11.11869 | -83.21315 | 31077 ft | 477 kts | 46° |
| 2026-05-07 23:54 | 11.14226 | -83.18925 | 31205 ft | 478 kts | 46° |
| 2026-05-07 23:55 | 11.16552 | -83.16568 | 31318 ft | 479 kts | 46° |
| 2026-05-07 23:55 | 11.18920 | -83.14167 | 31420 ft | 480 kts | 46° |
| 2026-05-07 23:55 | 11.23658 | -83.09361 | 31629 ft | 482 kts | 46° |
| 2026-05-07 23:56 | 11.28416 | -83.04531 | 31831 ft | 483 kts | 46° |
| 2026-05-07 23:56 | 11.30797 | -83.02113 | 31968 ft | 483 kts | 46° |
| 2026-05-07 23:56 | 11.33171 | -82.99703 | 32106 ft | 483 kts | 46° |
| 2026-05-07 23:57 | 11.35550 | -82.97287 | 32228 ft | 483 kts | 47° |
| 2026-05-07 23:57 | 11.37926 | -82.94871 | 32345 ft | 483 kts | 47° |
| 2026-05-07 23:57 | 11.40304 | -82.92455 | 32465 ft | 483 kts | 47° |
| 2026-05-07 23:57 | 11.42681 | -82.90039 | 32578 ft | 483 kts | 47° |
| 2026-05-07 23:58 | 11.45060 | -82.87620 | 32723 ft | 483 kts | 47° |
| 2026-05-07 23:58 | 11.47435 | -82.85205 | 32834 ft | 483 kts | 47° |
| 2026-05-07 23:58 | 11.49802 | -82.82798 | 32941 ft | 483 kts | 47° |
| 2026-05-07 23:58 | 11.52180 | -82.80378 | 33107 ft | 484 kts | 47° |
| 2026-05-07 23:59 | 11.54563 | -82.77951 | 33351 ft | 484 kts | 47° |
| 2026-05-07 23:59 | 11.56942 | -82.75525 | 33613 ft | 484 kts | 47° |
| 2026-05-07 23:59 | 11.59263 | -82.73160 | 33857 ft | 484 kts | 47° |
| 2026-05-07 23:59 | 11.61641 | -82.70736 | 34068 ft | 484 kts | 47° |
| 2026-05-08 00:00 | 11.63932 | -82.68385 | 34279 ft | 484 kts | 47° |
| 2026-05-08 00:00 | 11.66297 | -82.65946 | 34535 ft | 483 kts | 47° |
| 2026-05-08 00:00 | 11.68653 | -82.63510 | 34801 ft | 481 kts | 47° |
| 2026-05-08 00:00 | 11.71002 | -82.61081 | 35079 ft | 480 kts | 46° |
| 2026-05-08 00:01 | 11.73342 | -82.58662 | 35344 ft | 479 kts | 46° |
| 2026-05-08 00:01 | 11.75680 | -82.56245 | 35587 ft | 478 kts | 46° |
| 2026-05-08 00:01 | 11.78013 | -82.53834 | 35846 ft | 477 kts | 46° |
| 2026-05-08 00:01 | 11.80346 | -82.51423 | 36089 ft | 477 kts | 45° |
| 2026-05-08 00:02 | 11.82673 | -82.49018 | 36272 ft | 477 kts | 45° |
| 2026-05-08 00:02 | 11.85003 | -82.46609 | 36519 ft | 477 kts | 45° |
| 2026-05-08 00:02 | 11.87333 | -82.44199 | 36759 ft | 476 kts | 45° |
| 2026-05-08 00:02 | 11.89663 | -82.41789 | 36847 ft | 479 kts | 45° |
| 2026-05-08 00:03 | 11.94341 | -82.36947 | 36913 ft | 477 kts | 45° |
| 2026-05-08 00:03 | 11.98970 | -82.32156 | 36914 ft | 471 kts | 45° |
| 2026-05-08 00:04 | 12.03555 | -82.27406 | 36917 ft | 469 kts | 45° |
| 2026-05-08 00:04 | 12.08132 | -82.22665 | 36918 ft | 469 kts | 45° |
| 2026-05-08 00:05 | 12.12714 | -82.17911 | 36925 ft | 470 kts | 45° |
| 2026-05-08 00:05 | 12.17316 | -82.13138 | 36928 ft | 472 kts | 45° |
| 2026-05-08 00:06 | 12.21930 | -82.08348 | 36917 ft | 474 kts | 45° |
| 2026-05-08 00:06 | 12.26561 | -82.03536 | 36920 ft | 475 kts | 45° |
| 2026-05-08 00:07 | 12.31202 | -81.98717 | 36927 ft | 475 kts | 45° |
| 2026-05-08 00:07 | 12.35806 | -81.93933 | 36923 ft | 474 kts | 45° |
| 2026-05-08 00:08 | 12.40424 | -81.89122 | 36926 ft | 473 kts | 45° |
| 2026-05-08 00:08 | 12.45028 | -81.84332 | 36930 ft | 471 kts | 45° |
| 2026-05-08 00:09 | 12.49622 | -81.79552 | 36940 ft | 471 kts | 45° |
| 2026-05-08 00:09 | 12.54207 | -81.74768 | 36940 ft | 471 kts | 45° |
| 2026-05-08 00:10 | 12.58775 | -81.69952 | 36940 ft | 472 kts | 48° |
| 2026-05-08 00:10 | 12.62296 | -81.65509 | 36950 ft | 472 kts | 51° |
| 2026-05-08 00:11 | 12.66341 | -81.60210 | 36922 ft | 473 kts | 51° |
| 2026-05-08 00:11 | 12.70401 | -81.54912 | 36924 ft | 472 kts | 51° |
| 2026-05-08 00:12 | 12.74476 | -81.49632 | 36924 ft | 472 kts | 51° |
| 2026-05-08 00:12 | 12.78559 | -81.44361 | 36921 ft | 472 kts | 51° |
| 2026-05-08 00:13 | 12.82643 | -81.39086 | 36922 ft | 472 kts | 51° |
| 2026-05-08 00:13 | 12.86721 | -81.33809 | 36922 ft | 472 kts | 51° |
| 2026-05-08 00:14 | 12.90799 | -81.28528 | 36926 ft | 472 kts | 51° |
| 2026-05-08 00:14 | 12.94878 | -81.23248 | 36922 ft | 472 kts | 51° |
| 2026-05-08 00:15 | 12.98959 | -81.17964 | 36922 ft | 473 kts | 51° |
| 2026-05-08 00:15 | 13.02897 | -81.12856 | 36925 ft | 473 kts | 50° |
| 2026-05-08 00:16 | 13.06972 | -81.07568 | 36931 ft | 473 kts | 50° |
| 2026-05-08 00:16 | 13.11052 | -81.02270 | 36934 ft | 473 kts | 51° |
| 2026-05-08 00:17 | 13.15132 | -80.96972 | 36925 ft | 474 kts | 50° |
| 2026-05-08 00:17 | 13.18527 | -80.92561 | 36925 ft | 474 kts | 50° |
| 2026-05-08 00:18 | 13.23300 | -80.86357 | 36934 ft | 474 kts | 51° |
| 2026-05-08 00:18 | 13.26688 | -80.81947 | 36930 ft | 474 kts | 51° |
| 2026-05-08 00:19 | 13.30773 | -80.76628 | 36932 ft | 474 kts | 51° |
| 2026-05-08 00:19 | 13.34858 | -80.71307 | 36926 ft | 475 kts | 50° |
| 2026-05-08 00:20 | 13.38942 | -80.65975 | 36930 ft | 475 kts | 50° |
| 2026-05-08 00:20 | 13.43026 | -80.60652 | 36933 ft | 474 kts | 50° |
| 2026-05-08 00:21 | 13.47109 | -80.55327 | 36929 ft | 474 kts | 51° |
| 2026-05-08 00:21 | 13.51188 | -80.50003 | 36928 ft | 474 kts | 50° |
| 2026-05-08 00:22 | 13.55265 | -80.44672 | 36933 ft | 474 kts | 50° |
| 2026-05-08 00:22 | 13.59342 | -80.39345 | 36930 ft | 474 kts | 50° |
| 2026-05-08 00:23 | 13.63418 | -80.34012 | 36937 ft | 474 kts | 51° |
| 2026-05-08 00:23 | 13.67496 | -80.28673 | 36928 ft | 475 kts | 51° |
| 2026-05-08 00:24 | 13.71570 | -80.23336 | 36931 ft | 474 kts | 50° |
| 2026-05-08 00:24 | 13.75643 | -80.18000 | 36935 ft | 474 kts | 50° |
| 2026-05-08 00:25 | 13.79654 | -80.12737 | 36937 ft | 473 kts | 50° |
| 2026-05-08 00:25 | 13.83654 | -80.07489 | 36939 ft | 474 kts | 51° |
| 2026-05-08 00:26 | 13.87717 | -80.02153 | 36933 ft | 474 kts | 51° |
| 2026-05-08 00:26 | 13.91783 | -79.96808 | 36938 ft | 474 kts | 50° |
| 2026-05-08 00:27 | 13.95853 | -79.91456 | 36938 ft | 474 kts | 50° |
| 2026-05-08 00:27 | 13.99920 | -79.86105 | 36939 ft | 475 kts | 51° |
| 2026-05-08 00:28 | 14.03986 | -79.80752 | 36939 ft | 475 kts | 51° |
| 2026-05-08 00:28 | 14.08048 | -79.75399 | 36937 ft | 474 kts | 50° |
| 2026-05-08 00:29 | 14.12111 | -79.70046 | 36942 ft | 474 kts | 50° |
| 2026-05-08 00:29 | 14.16167 | -79.64692 | 36943 ft | 474 kts | 51° |
| 2026-05-08 00:30 | 14.20219 | -79.59344 | 36943 ft | 473 kts | 50° |
| 2026-05-08 00:30 | 14.24272 | -79.53994 | 36943 ft | 473 kts | 50° |
| 2026-05-08 00:31 | 14.28310 | -79.48656 | 36949 ft | 474 kts | 50° |
| 2026-05-08 00:31 | 14.32393 | -79.43256 | 36956 ft | 479 kts | 51° |
| 2026-05-08 00:32 | 14.36510 | -79.37808 | 36945 ft | 484 kts | 50° |
| 2026-05-08 00:32 | 14.40656 | -79.32317 | 36946 ft | 487 kts | 50° |
| 2026-05-08 00:33 | 14.44819 | -79.26798 | 36946 ft | 487 kts | 50° |
| 2026-05-08 00:33 | 14.48973 | -79.21290 | 36943 ft | 487 kts | 51° |
| 2026-05-08 00:34 | 14.53125 | -79.15779 | 36938 ft | 485 kts | 51° |
| 2026-05-08 00:34 | 14.57251 | -79.10300 | 36942 ft | 482 kts | 50° |
| 2026-05-08 00:35 | 14.61353 | -79.04849 | 36944 ft | 480 kts | 50° |
| 2026-05-08 00:35 | 14.65450 | -78.99401 | 36947 ft | 480 kts | 50° |
| 2026-05-08 00:36 | 14.69542 | -78.93956 | 36947 ft | 480 kts | 50° |
| 2026-05-08 00:36 | 14.73638 | -78.88501 | 36950 ft | 480 kts | 50° |
| 2026-05-08 00:37 | 14.77735 | -78.83041 | 36949 ft | 481 kts | 51° |
| 2026-05-08 00:38 | 14.83859 | -78.74875 | 36947 ft | 482 kts | 50° |
| 2026-05-08 00:38 | 14.87960 | -78.69400 | 36951 ft | 482 kts | 51° |
| 2026-05-08 00:39 | 14.92064 | -78.63916 | 36945 ft | 482 kts | 50° |
| 2026-05-08 00:39 | 14.96164 | -78.58433 | 36949 ft | 482 kts | 50° |
| 2026-05-08 00:40 | 15.00282 | -78.52961 | 36959 ft | 481 kts | 49° |
| 2026-05-08 00:40 | 15.04696 | -78.47763 | 36950 ft | 480 kts | 46° |
| 2026-05-08 00:41 | 15.09166 | -78.42633 | 36953 ft | 480 kts | 46° |
| 2026-05-08 00:41 | 15.13626 | -78.37490 | 36953 ft | 480 kts | 46° |
| 2026-05-08 00:42 | 15.18074 | -78.32331 | 36951 ft | 480 kts | 47° |
| 2026-05-08 00:42 | 15.22515 | -78.27167 | 36955 ft | 480 kts | 47° |
| 2026-05-08 00:43 | 15.26958 | -78.21996 | 36954 ft | 480 kts | 46° |
| 2026-05-08 00:43 | 15.31396 | -78.16827 | 36957 ft | 480 kts | 47° |
| 2026-05-08 00:44 | 15.35835 | -78.11656 | 36955 ft | 480 kts | 47° |
| 2026-05-08 00:44 | 15.40242 | -78.06516 | 36956 ft | 480 kts | 47° |
| 2026-05-08 00:45 | 15.44679 | -78.01339 | 36957 ft | 481 kts | 47° |
| 2026-05-08 00:45 | 15.49117 | -77.96158 | 36960 ft | 481 kts | 47° |
| 2026-05-08 00:46 | 15.53556 | -77.90971 | 36956 ft | 481 kts | 47° |
| 2026-05-08 00:46 | 15.57986 | -77.85790 | 36959 ft | 480 kts | 47° |
| 2026-05-08 00:47 | 15.62412 | -77.80611 | 36959 ft | 479 kts | 47° |
| 2026-05-08 00:47 | 15.66836 | -77.75431 | 36960 ft | 479 kts | 47° |
| 2026-05-08 00:48 | 15.71257 | -77.70251 | 36959 ft | 480 kts | 47° |
| 2026-05-08 00:48 | 15.75678 | -77.65068 | 36967 ft | 480 kts | 47° |
| 2026-05-08 00:49 | 15.80102 | -77.59875 | 36964 ft | 480 kts | 47° |
| 2026-05-08 00:49 | 15.84523 | -77.54684 | 36965 ft | 480 kts | 47° |
| 2026-05-08 00:50 | 15.88944 | -77.49487 | 36967 ft | 480 kts | 47° |
| 2026-05-08 00:50 | 15.93364 | -77.44290 | 36969 ft | 480 kts | 47° |
| 2026-05-08 00:51 | 15.97781 | -77.39091 | 36963 ft | 480 kts | 47° |
| 2026-05-08 00:51 | 16.02169 | -77.33924 | 36966 ft | 480 kts | 47° |
| 2026-05-08 00:52 | 16.06584 | -77.28720 | 36971 ft | 480 kts | 47° |
| 2026-05-08 00:52 | 16.11002 | -77.23508 | 36973 ft | 481 kts | 47° |
| 2026-05-08 00:53 | 16.15412 | -77.18302 | 36970 ft | 481 kts | 47° |
| 2026-05-08 00:53 | 16.19825 | -77.13088 | 36968 ft | 480 kts | 47° |
| 2026-05-08 00:54 | 16.24233 | -77.07873 | 36976 ft | 480 kts | 47° |
| 2026-05-08 00:54 | 16.28638 | -77.02664 | 36976 ft | 480 kts | 47° |
| 2026-05-08 00:55 | 16.31623 | -76.99129 | 36973 ft | 480 kts | 47° |
| 2026-05-08 00:55 | 16.36029 | -76.93908 | 36979 ft | 480 kts | 47° |
| 2026-05-08 00:56 | 16.40440 | -76.88679 | 36978 ft | 481 kts | 47° |
| 2026-05-08 00:56 | 16.44853 | -76.83441 | 36984 ft | 481 kts | 47° |
| 2026-05-08 00:57 | 16.49219 | -76.78259 | 36977 ft | 481 kts | 47° |
| 2026-05-08 00:57 | 16.53499 | -76.73172 | 36981 ft | 480 kts | 47° |
| 2026-05-08 00:58 | 16.57897 | -76.67939 | 36981 ft | 479 kts | 47° |
| 2026-05-08 00:58 | 16.62288 | -76.62713 | 36985 ft | 479 kts | 47° |
| 2026-05-08 00:59 | 16.66684 | -76.57477 | 36984 ft | 480 kts | 47° |
| 2026-05-08 00:59 | 16.71074 | -76.52235 | 36985 ft | 480 kts | 47° |
| 2026-05-08 01:00 | 16.75469 | -76.46979 | 36990 ft | 481 kts | 47° |
| 2026-05-08 01:00 | 16.79862 | -76.41721 | 36988 ft | 480 kts | 47° |
| 2026-05-08 01:01 | 16.84262 | -76.36477 | 36986 ft | 480 kts | 47° |
| 2026-05-08 01:01 | 16.88437 | -76.31548 | 36990 ft | 479 kts | 47° |
| 2026-05-08 01:02 | 16.92844 | -76.26327 | 36989 ft | 479 kts | 47° |
| 2026-05-08 01:02 | 16.97228 | -76.21086 | 36988 ft | 480 kts | 47° |
| 2026-05-08 01:03 | 17.01611 | -76.15829 | 36987 ft | 480 kts | 47° |
| 2026-05-08 01:03 | 17.06002 | -76.10562 | 36993 ft | 481 kts | 47° |
| 2026-05-08 01:04 | 17.10396 | -76.05292 | 36991 ft | 481 kts | 47° |
| 2026-05-08 01:04 | 17.14759 | -76.00052 | 36992 ft | 481 kts | 47° |
| 2026-05-08 01:05 | 17.19176 | -75.94745 | 36996 ft | 480 kts | 47° |
| 2026-05-08 01:05 | 17.23531 | -75.89510 | 36992 ft | 480 kts | 47° |
| 2026-05-08 01:06 | 17.27912 | -75.84238 | 36993 ft | 480 kts | 47° |
| 2026-05-08 01:06 | 17.32292 | -75.78961 | 36999 ft | 480 kts | 47° |
| 2026-05-08 01:07 | 17.36673 | -75.73679 | 37008 ft | 481 kts | 47° |
| 2026-05-08 01:07 | 17.41055 | -75.68390 | 37003 ft | 481 kts | 47° |
| 2026-05-08 01:08 | 17.45428 | -75.63109 | 37003 ft | 480 kts | 47° |
| 2026-05-08 01:08 | 17.49067 | -75.58711 | 37004 ft | 480 kts | 47° |
| 2026-05-08 01:09 | 17.54175 | -75.52526 | 37006 ft | 480 kts | 47° |
| 2026-05-08 01:09 | 17.57804 | -75.48128 | 37004 ft | 480 kts | 47° |
| 2026-05-08 01:10 | 17.62169 | -75.42840 | 36998 ft | 480 kts | 47° |
| 2026-05-08 01:10 | 17.66530 | -75.37551 | 37011 ft | 479 kts | 48° |
| 2026-05-08 01:11 | 17.70884 | -75.32264 | 37009 ft | 478 kts | 48° |
| 2026-05-08 01:11 | 17.75217 | -75.26999 | 37009 ft | 478 kts | 48° |
| 2026-05-08 01:12 | 17.79564 | -75.21713 | 37006 ft | 478 kts | 48° |
| 2026-05-08 01:12 | 17.83908 | -75.16427 | 37010 ft | 478 kts | 48° |
| 2026-05-08 01:13 | 17.88255 | -75.11135 | 37009 ft | 479 kts | 48° |
| 2026-05-08 01:13 | 17.92603 | -75.05833 | 37023 ft | 479 kts | 48° |
| 2026-05-08 01:14 | 17.96954 | -75.00526 | 37012 ft | 480 kts | 48° |
| 2026-05-08 01:14 | 18.01304 | -74.95216 | 37009 ft | 479 kts | 48° |
| 2026-05-08 01:15 | 18.05652 | -74.89901 | 37014 ft | 479 kts | 48° |
| 2026-05-08 01:15 | 18.09996 | -74.84588 | 37016 ft | 479 kts | 48° |
| 2026-05-08 01:16 | 18.14332 | -74.79277 | 37016 ft | 478 kts | 48° |
| 2026-05-08 01:16 | 18.18665 | -74.73974 | 37018 ft | 478 kts | 48° |
| 2026-05-08 01:17 | 18.22993 | -74.68664 | 37013 ft | 478 kts | 48° |
| 2026-05-08 01:17 | 18.27454 | -74.63485 | 37018 ft | 477 kts | 44° |
| 2026-05-08 01:18 | 18.32084 | -74.58550 | 37016 ft | 477 kts | 44° |
| 2026-05-08 01:18 | 18.36757 | -74.53587 | 37023 ft | 478 kts | 44° |
| 2026-05-08 01:19 | 18.41417 | -74.48601 | 37030 ft | 478 kts | 44° |
| 2026-05-08 01:19 | 18.46106 | -74.43562 | 37031 ft | 478 kts | 44° |
| 2026-05-08 01:20 | 18.50731 | -74.38584 | 37033 ft | 479 kts | 44° |
| 2026-05-08 01:20 | 18.55391 | -74.33566 | 37034 ft | 479 kts | 44° |
| 2026-05-08 01:21 | 18.60039 | -74.28558 | 37045 ft | 477 kts | 44° |
| 2026-05-08 01:21 | 18.64680 | -74.23554 | 37033 ft | 477 kts | 44° |
| 2026-05-08 01:22 | 18.69311 | -74.18557 | 37046 ft | 476 kts | 44° |
| 2026-05-08 01:22 | 18.73931 | -74.13564 | 37038 ft | 475 kts | 44° |
| 2026-05-08 01:23 | 18.78550 | -74.08571 | 37041 ft | 475 kts | 44° |
| 2026-05-08 01:23 | 18.83103 | -74.03507 | 37031 ft | 476 kts | 46° |
| 2026-05-08 01:24 | 18.87518 | -73.98304 | 37042 ft | 475 kts | 46° |
| 2026-05-08 01:24 | 18.91957 | -73.93124 | 37034 ft | 475 kts | 46° |
| 2026-05-08 01:25 | 18.96524 | -73.88097 | 37027 ft | 474 kts | 43° |
| 2026-05-08 01:25 | 19.01230 | -73.83215 | 37031 ft | 474 kts | 43° |
| 2026-05-08 01:26 | 19.05917 | -73.78317 | 37029 ft | 474 kts | 43° |
| 2026-05-08 01:26 | 19.10548 | -73.73423 | 37027 ft | 474 kts | 43° |
| 2026-05-08 01:27 | 19.15199 | -73.68488 | 37032 ft | 474 kts | 43° |
| 2026-05-08 01:27 | 19.19853 | -73.63547 | 37037 ft | 473 kts | 43° |
| 2026-05-08 01:28 | 19.24500 | -73.58613 | 37026 ft | 473 kts | 43° |
| 2026-05-08 01:28 | 19.29143 | -73.53676 | 37027 ft | 473 kts | 43° |
| 2026-05-08 01:29 | 19.33762 | -73.48723 | 37022 ft | 473 kts | 44° |
| 2026-05-08 01:29 | 19.38323 | -73.43715 | 37028 ft | 472 kts | 44° |
| 2026-05-08 01:30 | 19.42882 | -73.38711 | 37032 ft | 472 kts | 44° |
| 2026-05-08 01:30 | 19.47449 | -73.33708 | 37033 ft | 472 kts | 44° |
| 2026-05-08 01:31 | 19.52002 | -73.28686 | 37039 ft | 472 kts | 45° |
| 2026-05-08 01:31 | 19.56471 | -73.23580 | 37032 ft | 472 kts | 45° |
| 2026-05-08 01:32 | 19.60932 | -73.18468 | 37036 ft | 472 kts | 45° |
| 2026-05-08 01:32 | 19.65406 | -73.13366 | 37040 ft | 472 kts | 45° |
| 2026-05-08 01:33 | 19.70011 | -73.08408 | 37042 ft | 471 kts | 41° |
| 2026-05-08 01:33 | 19.74733 | -73.03584 | 37048 ft | 471 kts | 42° |
| 2026-05-08 01:34 | 19.79354 | -72.98648 | 37063 ft | 472 kts | 45° |
| 2026-05-08 01:34 | 19.83736 | -72.93445 | 37062 ft | 473 kts | 46° |
| 2026-05-08 01:35 | 19.88187 | -72.88335 | 37041 ft | 472 kts | 43° |
| 2026-05-08 01:35 | 19.92804 | -72.83390 | 37062 ft | 471 kts | 43° |
| 2026-05-08 01:36 | 19.97375 | -72.78469 | 37047 ft | 471 kts | 43° |
| 2026-05-08 01:36 | 20.01944 | -72.73491 | 37061 ft | 470 kts | 44° |
| 2026-05-08 01:37 | 20.06488 | -72.68491 | 37061 ft | 470 kts | 44° |
| 2026-05-08 01:37 | 20.11008 | -72.63463 | 37067 ft | 471 kts | 46° |
| 2026-05-08 01:38 | 20.15268 | -72.58159 | 37072 ft | 472 kts | 47° |
| 2026-05-08 01:38 | 20.19494 | -72.52817 | 37068 ft | 471 kts | 47° |
| 2026-05-08 01:39 | 20.23728 | -72.47490 | 37056 ft | 471 kts | 47° |
| 2026-05-08 01:39 | 20.27965 | -72.42172 | 37056 ft | 471 kts | 47° |
| 2026-05-08 01:40 | 20.32204 | -72.36847 | 37057 ft | 471 kts | 47° |
| 2026-05-08 01:40 | 20.36441 | -72.31520 | 37058 ft | 471 kts | 47° |
| 2026-05-08 01:41 | 20.40675 | -72.26194 | 37057 ft | 470 kts | 47° |
| 2026-05-08 01:41 | 20.45134 | -72.21118 | 37062 ft | 468 kts | 43° |
| 2026-05-08 01:42 | 20.49728 | -72.16199 | 37059 ft | 468 kts | 43° |
| 2026-05-08 01:42 | 20.54319 | -72.11271 | 37062 ft | 468 kts | 43° |
| 2026-05-08 01:43 | 20.58894 | -72.06328 | 37064 ft | 468 kts | 43° |
| 2026-05-08 01:43 | 20.63462 | -72.01382 | 37064 ft | 468 kts | 43° |
| 2026-05-08 01:44 | 20.67997 | -71.96463 | 37067 ft | 468 kts | 43° |
| 2026-05-08 01:44 | 20.72559 | -71.91512 | 37065 ft | 468 kts | 43° |
| 2026-05-08 01:45 | 20.77109 | -71.86573 | 37071 ft | 467 kts | 43° |
| 2026-05-08 01:45 | 20.81662 | -71.81623 | 37069 ft | 467 kts | 43° |
| 2026-05-08 01:46 | 20.86208 | -71.76675 | 37074 ft | 466 kts | 43° |
| 2026-05-08 01:46 | 20.90754 | -71.71724 | 37068 ft | 466 kts | 43° |
| 2026-05-08 01:47 | 20.95297 | -71.66772 | 37070 ft | 466 kts | 43° |
| 2026-05-08 01:47 | 20.99827 | -71.61828 | 37069 ft | 466 kts | 43° |
| 2026-05-08 01:48 | 21.06644 | -71.54400 | 37078 ft | 466 kts | 42° |
| 2026-05-08 01:48 | 21.11188 | -71.49448 | 37070 ft | 466 kts | 42° |
| 2026-05-08 01:49 | 21.15727 | -71.44492 | 37071 ft | 466 kts | 43° |
| 2026-05-08 01:49 | 21.20262 | -71.39531 | 37072 ft | 466 kts | 43° |
| 2026-05-08 01:50 | 21.24797 | -71.34573 | 37073 ft | 466 kts | 43° |
| 2026-05-08 01:50 | 21.29330 | -71.29611 | 37076 ft | 466 kts | 43° |
| 2026-05-08 01:51 | 21.33862 | -71.24642 | 37077 ft | 466 kts | 43° |
| 2026-05-08 01:51 | 21.38391 | -71.19671 | 37077 ft | 466 kts | 43° |
| 2026-05-08 01:52 | 21.42895 | -71.14729 | 37078 ft | 466 kts | 42° |
| 2026-05-08 01:52 | 21.47742 | -71.10160 | 37084 ft | 463 kts | 36° |
| 2026-05-08 01:53 | 21.52787 | -71.05860 | 37084 ft | 463 kts | 36° |
| 2026-05-08 01:53 | 21.57824 | -71.01537 | 37085 ft | 463 kts | 36° |
| 2026-05-08 01:54 | 21.62845 | -70.97194 | 37091 ft | 464 kts | 36° |
| 2026-05-08 01:54 | 21.67869 | -70.92839 | 37088 ft | 464 kts | 36° |
| 2026-05-08 01:55 | 21.72893 | -70.88477 | 37089 ft | 464 kts | 36° |
| 2026-05-08 01:55 | 21.77915 | -70.84114 | 37093 ft | 464 kts | 36° |
| 2026-05-08 01:56 | 21.82918 | -70.79720 | 37093 ft | 464 kts | 38° |
| 2026-05-08 01:56 | 21.87685 | -70.75031 | 37093 ft | 464 kts | 40° |
| 2026-05-08 01:57 | 21.91612 | -70.71098 | 37092 ft | 464 kts | 40° |
| 2026-05-08 01:57 | 21.96350 | -70.66368 | 37091 ft | 464 kts | 40° |
| 2026-05-08 01:58 | 22.01097 | -70.61643 | 37094 ft | 465 kts | 40° |
| 2026-05-08 01:58 | 22.05850 | -70.56914 | 37098 ft | 465 kts | 40° |
| 2026-05-08 01:59 | 22.10603 | -70.52176 | 37107 ft | 466 kts | 40° |
| 2026-05-08 01:59 | 22.15363 | -70.47434 | 37099 ft | 466 kts | 40° |
| 2026-05-08 02:00 | 22.20123 | -70.42683 | 37102 ft | 466 kts | 40° |
| 2026-05-08 02:00 | 22.24864 | -70.37943 | 37102 ft | 465 kts | 40° |
| 2026-05-08 02:01 | 22.29616 | -70.33191 | 37107 ft | 466 kts | 40° |
| 2026-05-08 02:01 | 22.34375 | -70.28432 | 37105 ft | 466 kts | 39° |
| 2026-05-08 02:02 | 22.39219 | -70.23786 | 37103 ft | 465 kts | 38° |
| 2026-05-08 02:02 | 22.44100 | -70.19193 | 37114 ft | 465 kts | 38° |
| 2026-05-08 02:03 | 22.48933 | -70.14612 | 37105 ft | 465 kts | 38° |
| 2026-05-08 02:03 | 22.53783 | -70.09992 | 37106 ft | 465 kts | 38° |
| 2026-05-08 02:04 | 22.58635 | -70.05366 | 37110 ft | 465 kts | 39° |
| 2026-05-08 02:04 | 22.63464 | -70.00755 | 37090 ft | 459 kts | 38° |
| 2026-05-08 02:05 | 22.68221 | -69.96207 | 36862 ft | 455 kts | 38° |
| 2026-05-08 02:05 | 22.70600 | -69.93934 | 36433 ft | 458 kts | 38° |
| 2026-05-08 02:05 | 22.72993 | -69.91638 | 36171 ft | 461 kts | 40° |
| 2026-05-08 02:06 | 22.77359 | -69.86444 | 36112 ft | 471 kts | 49° |
| 2026-05-08 02:06 | 22.81390 | -69.80852 | 36110 ft | 469 kts | 49° |
| 2026-05-08 02:07 | 22.85401 | -69.75298 | 36110 ft | 467 kts | 49° |
| 2026-05-08 02:07 | 22.89416 | -69.69773 | 36109 ft | 466 kts | 49° |
| 2026-05-08 02:08 | 22.93432 | -69.64260 | 36111 ft | 466 kts | 49° |
| 2026-05-08 02:08 | 22.97458 | -69.58731 | 36113 ft | 468 kts | 49° |
| 2026-05-08 02:09 | 23.01489 | -69.53184 | 36117 ft | 468 kts | 49° |
| 2026-05-08 02:09 | 23.05527 | -69.47622 | 36121 ft | 469 kts | 49° |
| 2026-05-08 02:10 | 23.09571 | -69.42046 | 36114 ft | 470 kts | 49° |
| 2026-05-08 02:10 | 23.13609 | -69.36470 | 36120 ft | 470 kts | 49° |
| 2026-05-08 02:11 | 23.17648 | -69.30892 | 36118 ft | 469 kts | 49° |
| 2026-05-08 02:11 | 23.21682 | -69.25310 | 36116 ft | 469 kts | 49° |
| 2026-05-08 02:12 | 23.25711 | -69.19728 | 36117 ft | 469 kts | 49° |
| 2026-05-08 02:12 | 23.29738 | -69.14144 | 36122 ft | 469 kts | 49° |
| 2026-05-08 02:13 | 23.33764 | -69.08556 | 36115 ft | 469 kts | 49° |
| 2026-05-08 02:13 | 23.37760 | -69.03007 | 36118 ft | 468 kts | 49° |
| 2026-05-08 02:14 | 23.41776 | -68.97420 | 36116 ft | 469 kts | 49° |
| 2026-05-08 02:14 | 23.45792 | -68.91827 | 36119 ft | 469 kts | 49° |
| 2026-05-08 02:15 | 23.49805 | -68.86231 | 36121 ft | 469 kts | 49° |
| 2026-05-08 02:15 | 23.53818 | -68.80630 | 36124 ft | 469 kts | 49° |
| 2026-05-08 02:16 | 23.57830 | -68.75024 | 36124 ft | 469 kts | 49° |
| 2026-05-08 02:16 | 23.61838 | -68.69418 | 36123 ft | 469 kts | 49° |
| 2026-05-08 02:17 | 23.65844 | -68.63809 | 36125 ft | 468 kts | 49° |
| 2026-05-08 02:17 | 23.69843 | -68.58204 | 36125 ft | 468 kts | 49° |
| 2026-05-08 02:18 | 23.73841 | -68.52590 | 36134 ft | 469 kts | 49° |
| 2026-05-08 02:18 | 23.77832 | -68.46981 | 36130 ft | 468 kts | 49° |
| 2026-05-08 02:19 | 23.80866 | -68.42716 | 36130 ft | 469 kts | 49° |
| 2026-05-08 02:19 | 23.84859 | -68.37092 | 36127 ft | 468 kts | 49° |
| 2026-05-08 02:20 | 23.88848 | -68.31468 | 36127 ft | 468 kts | 49° |
| 2026-05-08 02:20 | 23.92837 | -68.25839 | 36131 ft | 468 kts | 49° |
| 2026-05-08 02:21 | 23.96751 | -68.20143 | 36132 ft | 469 kts | 50° |
| 2026-05-08 02:21 | 24.00574 | -68.14364 | 36134 ft | 469 kts | 50° |
| 2026-05-08 02:22 | 24.04399 | -68.08586 | 36130 ft | 469 kts | 50° |
| 2026-05-08 02:22 | 24.08237 | -68.02818 | 36130 ft | 468 kts | 50° |
| 2026-05-08 02:23 | 24.12073 | -67.97055 | 36132 ft | 468 kts | 50° |
| 2026-05-08 02:23 | 24.15717 | -67.91571 | 36131 ft | 469 kts | 50° |
| 2026-05-08 02:24 | 24.19552 | -67.85794 | 36135 ft | 469 kts | 50° |
| 2026-05-08 02:24 | 24.23377 | -67.80024 | 36121 ft | 468 kts | 50° |
| 2026-05-08 02:25 | 24.27203 | -67.74247 | 36128 ft | 468 kts | 50° |
| 2026-05-08 02:25 | 24.31031 | -67.68466 | 36134 ft | 469 kts | 50° |
| 2026-05-08 02:26 | 24.34856 | -67.62677 | 36127 ft | 469 kts | 50° |
| 2026-05-08 02:26 | 24.38678 | -67.56886 | 36125 ft | 469 kts | 50° |
| 2026-05-08 02:27 | 24.42501 | -67.51088 | 36143 ft | 469 kts | 50° |
| 2026-05-08 02:27 | 24.46180 | -67.45499 | 36129 ft | 469 kts | 50° |
| 2026-05-08 02:28 | 24.49994 | -67.39700 | 36126 ft | 468 kts | 50° |
| 2026-05-08 02:28 | 24.53797 | -67.33909 | 36122 ft | 466 kts | 50° |
| 2026-05-08 02:29 | 24.57513 | -67.28246 | 36130 ft | 465 kts | 50° |
| 2026-05-08 02:29 | 24.61285 | -67.22489 | 36136 ft | 464 kts | 51° |
| 2026-05-08 02:30 | 24.65053 | -67.16734 | 36123 ft | 463 kts | 50° |
| 2026-05-08 02:30 | 24.68811 | -67.10985 | 36140 ft | 463 kts | 50° |
| 2026-05-08 02:31 | 24.72572 | -67.05225 | 36144 ft | 464 kts | 50° |
| 2026-05-08 02:31 | 24.76335 | -66.99457 | 36133 ft | 464 kts | 50° |
| 2026-05-08 02:32 | 24.80102 | -66.93674 | 36128 ft | 465 kts | 51° |
| 2026-05-08 02:32 | 24.83871 | -66.87881 | 36140 ft | 466 kts | 51° |
| 2026-05-08 02:33 | 24.87639 | -66.82078 | 36137 ft | 465 kts | 51° |
| 2026-05-08 02:33 | 24.91402 | -66.76280 | 36136 ft | 465 kts | 51° |
| 2026-05-08 02:34 | 24.95165 | -66.70485 | 36136 ft | 465 kts | 51° |
| 2026-05-08 02:34 | 24.98924 | -66.64680 | 36136 ft | 465 kts | 51° |
| 2026-05-08 02:35 | 25.02680 | -66.58866 | 36133 ft | 465 kts | 51° |
| 2026-05-08 02:35 | 25.06435 | -66.53054 | 36142 ft | 465 kts | 51° |
| 2026-05-08 02:36 | 25.10154 | -66.47285 | 36135 ft | 464 kts | 51° |
| 2026-05-08 02:36 | 25.13895 | -66.41485 | 36136 ft | 464 kts | 51° |
| 2026-05-08 02:37 | 25.17634 | -66.35676 | 36139 ft | 464 kts | 51° |
| 2026-05-08 02:37 | 25.21372 | -66.29858 | 36135 ft | 465 kts | 51° |
| 2026-05-08 02:38 | 25.25113 | -66.24032 | 36146 ft | 465 kts | 51° |
| 2026-05-08 02:38 | 25.28850 | -66.18203 | 36142 ft | 465 kts | 51° |
| 2026-05-08 02:39 | 25.32589 | -66.12366 | 36137 ft | 465 kts | 51° |
| 2026-05-08 02:39 | 25.36322 | -66.06534 | 36138 ft | 465 kts | 51° |
| 2026-05-08 02:40 | 25.40023 | -66.00741 | 36139 ft | 464 kts | 51° |
| 2026-05-08 02:40 | 25.43741 | -65.94910 | 36140 ft | 465 kts | 51° |
| 2026-05-08 02:41 | 25.47467 | -65.89063 | 36148 ft | 465 kts | 51° |
| 2026-05-08 02:41 | 25.51188 | -65.83218 | 36137 ft | 464 kts | 51° |
| 2026-05-08 02:42 | 25.54905 | -65.77372 | 36139 ft | 464 kts | 51° |
| 2026-05-08 02:42 | 25.58612 | -65.71534 | 36138 ft | 463 kts | 51° |
| 2026-05-08 02:43 | 25.62318 | -65.65691 | 36139 ft | 463 kts | 51° |
| 2026-05-08 02:43 | 25.66019 | -65.59847 | 36148 ft | 463 kts | 51° |
| 2026-05-08 02:44 | 25.69709 | -65.54012 | 36133 ft | 462 kts | 51° |
| 2026-05-08 02:44 | 25.73391 | -65.48183 | 36138 ft | 461 kts | 51° |
| 2026-05-08 02:45 | 25.77056 | -65.42372 | 36141 ft | 460 kts | 51° |
| 2026-05-08 02:45 | 25.80719 | -65.36563 | 36143 ft | 459 kts | 51° |
| 2026-05-08 02:46 | 25.83762 | -65.31730 | 36143 ft | 460 kts | 51° |
| 2026-05-08 02:46 | 25.88018 | -65.24960 | 36149 ft | 460 kts | 51° |
| 2026-05-08 02:47 | 25.91681 | -65.19124 | 36142 ft | 461 kts | 51° |
| 2026-05-08 02:47 | 25.94751 | -65.14229 | 36139 ft | 461 kts | 51° |
| 2026-05-08 02:48 | 25.98387 | -65.08426 | 36140 ft | 461 kts | 51° |
| 2026-05-08 02:48 | 26.02040 | -65.02588 | 36139 ft | 461 kts | 51° |
| 2026-05-08 02:49 | 26.05692 | -64.96741 | 36149 ft | 460 kts | 51° |